< < Back
Terminal Aerodrome Forecast


Current Version              Previous Versions:   1  2  3  4  5  6  7  8  9  

Terminal Aerodrome Forecast

994
FTUS42 KTAE 191415 AAB
TAFABY
TAF AMD
KABY 191415Z 1914/2012 13010KT P6SM BKN008 OVC015
     FM191600 20013G20KT 2SM +TSRA SCT004 BKN020CB
     FM192000 21010KT P6SM OVC015
     FM200000 21011KT P6SM BKN250
     FM200300 19006KT P6SM OVC025=

Latest METAR

863
SAUS70 KWBC 191500 RRG
MTRABY
METAR KABY 191453Z 15009KT 2SM TSRA BKN012 BKN023 OVC095 23/21 A2987 RMK
AO2 LTG DSNT SW-NW RAB38 TSB47 SLP115 P0007 60007 T02330211
53006


USA.gov is the U.S. government's official web portal to all federal, state and local government web resources and services.